createdAt,value
2022-07-29T00:02:16.085Z,101533.50
2022-07-29T00:04:42.844Z,101531.56
2022-07-29T00:07:09.516Z,101528.59
2022-07-29T00:09:42.991Z,101528.34
2022-07-29T00:12:25.121Z,101511.69
2022-07-29T00:14:53.953Z,101517.31
2022-07-29T00:17:20.679Z,101520.94
2022-07-29T00:19:47.276Z,101522.81
2022-07-29T00:22:13.964Z,101521.31
2022-07-29T00:24:40.642Z,101517.75
2022-07-29T00:27:07.448Z,101522.09
2022-07-29T00:29:35.011Z,101519.19
2022-07-29T00:32:03.134Z,101521.50
2022-07-29T00:34:48.585Z,101526.94
2022-07-29T00:37:15.214Z,101534.47
2022-07-29T00:39:41.885Z,101527.97
2022-07-29T00:42:08.996Z,101532.84
2022-07-29T00:44:40.528Z,101540.31
2022-07-29T00:47:08.533Z,101526.94
2022-07-29T00:49:36.577Z,101529.81
2022-07-29T00:52:05.039Z,101525.88
2022-07-29T00:54:32.022Z,101517.28
2022-07-29T00:57:01.924Z,101508.63
2022-07-29T00:59:34.770Z,101507.59
2022-07-29T01:02:03.149Z,101511.56
2022-07-29T01:04:30.754Z,101492.94
2022-07-29T01:06:57.670Z,101496.94
2022-07-29T01:09:42.041Z,101503.81
2022-07-29T01:12:13.944Z,101504.66
2022-07-29T01:14:41.617Z,101498.75
2022-07-29T01:17:15.097Z,101495.44
2022-07-29T01:20:12.534Z,101490.41
2022-07-29T01:23:06.628Z,101486.34
2022-07-29T01:25:45.307Z,101482.78
2022-07-29T01:28:34.098Z,101476.88
2022-07-29T01:31:03.611Z,101472.88
2022-07-29T01:33:51.451Z,101468.09
2022-07-29T01:36:41.441Z,101469.56
2022-07-29T01:39:07.976Z,101468.28
2022-07-29T01:41:39.651Z,101461.59
2022-07-29T01:44:33.996Z,101449.47
2022-07-29T01:47:07.217Z,101451.34
2022-07-29T01:49:40.749Z,101443.69
2022-07-29T01:52:14.305Z,101442.97
2022-07-29T01:55:10.753Z,101435.13
2022-07-29T01:57:40.858Z,101433.41
2022-07-29T02:00:08.396Z,101433.00
2022-07-29T02:02:37.828Z,101428.34
2022-07-29T02:05:08.814Z,101435.06
2022-07-29T02:07:37.382Z,101424.59
2022-07-29T02:10:07.229Z,101429.38
2022-07-29T02:12:34.726Z,101424.59
2022-07-29T02:15:02.979Z,101420.47
2022-07-29T02:17:39.888Z,101422.97
2022-07-29T02:20:09.696Z,101422.22
2022-07-29T02:22:39.204Z,101426.22
2022-07-29T02:25:08.408Z,101426.72
2022-07-29T02:27:42.560Z,101432.59
2022-07-29T02:30:11.141Z,101441.78
2022-07-29T02:32:40.237Z,101445.16
2022-07-29T02:35:10.058Z,101439.72
2022-07-29T02:37:38.640Z,101446.78
2022-07-29T02:40:09.398Z,101443.03
2022-07-29T02:42:38.446Z,101438.44
2022-07-29T02:45:07.216Z,101441.03
2022-07-29T02:48:00.676Z,101435.13
2022-07-29T02:50:34.925Z,101430.09
2022-07-29T02:53:09.481Z,101431.38
2022-07-29T02:55:41.421Z,101432.59
2022-07-29T02:58:16.203Z,101431.88
2022-07-29T03:00:45.145Z,101442.75
2022-07-29T03:03:18.239Z,101440.63
2022-07-29T03:05:44.847Z,101443.97
2022-07-29T03:08:12.782Z,101448.38
2022-07-29T03:10:43.696Z,101443.34
2022-07-29T03:13:11.271Z,101433.75
2022-07-29T03:15:38.368Z,101431.53
2022-07-29T03:18:07.503Z,101431.09
2022-07-29T03:20:34.329Z,101435.66
2022-07-29T03:23:01.239Z,101428.50
2022-07-29T03:25:28.378Z,101432.72
2022-07-29T03:27:55.129Z,101425.63
2022-07-29T03:30:22.559Z,101430.66
2022-07-29T03:32:52.157Z,101435.91
2022-07-29T03:35:20.395Z,101438.41
2022-07-29T03:37:47.844Z,101436.97
2022-07-29T03:40:22.753Z,101429.72
2022-07-29T03:42:51.315Z,101431.00
2022-07-29T03:45:20.137Z,101427.88
2022-07-29T03:47:54.720Z,101427.69
2022-07-29T03:50:23.899Z,101426.28
2022-07-29T03:52:51.018Z,101422.72
2022-07-29T03:55:17.768Z,101428.16
2022-07-29T03:57:45.963Z,101421.34
2022-07-29T04:00:13.280Z,101427.66
2022-07-29T04:02:40.954Z,101433.84
2022-07-29T04:05:13.681Z,101423.94
2022-07-29T04:07:41.245Z,101423.75
2022-07-29T04:10:08.823Z,101418.69
2022-07-29T04:12:36.101Z,101422.22
2022-07-29T04:15:06.905Z,101417.22
2022-07-29T04:17:33.535Z,101419.09
2022-07-29T04:20:00.258Z,101420.34
2022-07-29T04:22:26.925Z,101425.75
2022-07-29T04:24:54.099Z,101421.16
2022-07-29T04:27:20.827Z,101418.50
2022-07-29T04:29:56.480Z,101410.34
2022-07-29T04:32:25.142Z,101411.78
2022-07-29T04:34:51.994Z,101414.25
2022-07-29T04:37:18.586Z,101421.72
2022-07-29T04:39:45.206Z,101419.50
2022-07-29T04:42:12.007Z,101426.13
2022-07-29T04:44:42.893Z,101425.47
2022-07-29T04:47:09.932Z,101425.69
2022-07-29T04:49:39.389Z,101425.28
2022-07-29T04:52:07.042Z,101435.31
2022-07-29T04:54:34.131Z,101430.56
2022-07-29T04:57:00.845Z,101421.81
2022-07-29T04:59:28.166Z,101427.97
2022-07-29T05:01:54.980Z,101422.53
2022-07-29T05:04:21.805Z,101420.66
2022-07-29T05:06:49.424Z,101417.59
2022-07-29T05:09:16.150Z,101411.75
2022-07-29T05:11:42.781Z,101421.38
2022-07-29T05:14:09.459Z,101427.09
2022-07-29T05:16:36.048Z,101427.66
2022-07-29T05:19:02.719Z,101421.81
2022-07-29T05:21:29.355Z,101418.25
2022-07-29T05:23:56.019Z,101423.25
2022-07-29T05:26:22.603Z,101426.56
2022-07-29T05:28:49.277Z,101427.22
2022-07-29T05:31:16.007Z,101425.72
2022-07-29T05:33:42.915Z,101428.47
2022-07-29T05:36:09.827Z,101426.56
2022-07-29T05:38:36.942Z,101424.91
2022-07-29T05:41:04.193Z,101436.63
2022-07-29T05:43:31.144Z,101423.44
2022-07-29T05:45:58.040Z,101423.84
2022-07-29T05:48:25.014Z,101427.63
2022-07-29T05:50:51.938Z,101433.47
2022-07-29T05:53:19.480Z,101428.03
2022-07-29T05:55:47.009Z,101429.50
2022-07-29T05:58:13.612Z,101433.06
2022-07-29T06:00:40.874Z,101433.25
2022-07-29T06:03:07.684Z,101420.91
2022-07-29T06:05:34.348Z,101426.16
2022-07-29T06:08:00.965Z,101421.53
2022-07-29T06:10:27.883Z,101419.88
2022-07-29T06:12:54.858Z,101420.69
2022-07-29T06:15:21.450Z,101434.31
2022-07-29T06:17:59.857Z,101425.09
2022-07-29T06:20:30.792Z,101423.84
2022-07-29T06:22:58.007Z,101420.50
2022-07-29T06:25:24.624Z,101425.50
2022-07-29T06:27:51.251Z,101419.66
2022-07-29T06:30:17.920Z,101419.66
2022-07-29T06:32:44.489Z,101424.66
2022-07-29T06:35:41.089Z,101419.78
2022-07-29T06:37:59.555Z,101422.00
2022-07-29T06:40:45.108Z,101419.28
2022-07-29T06:43:11.825Z,101416.97
2022-07-29T06:45:42.310Z,101419.75
2022-07-29T06:48:10.068Z,101423.53
2022-07-29T06:50:36.780Z,101425.84
2022-07-29T06:53:04.165Z,101425.09
2022-07-29T06:55:30.764Z,101428.72
2022-07-29T06:57:57.339Z,101433.50
2022-07-29T07:00:23.990Z,101435.00
2022-07-29T07:02:50.690Z,101436.47
2022-07-29T07:05:17.355Z,101433.75
2022-07-29T07:07:43.923Z,101435.81
2022-07-29T07:10:10.583Z,101434.56
2022-07-29T07:12:37.259Z,101435.41
2022-07-29T07:15:04.176Z,101432.28
2022-07-29T07:17:30.773Z,101434.56
2022-07-29T07:19:57.357Z,101447.09
2022-07-29T07:22:23.974Z,101436.88
2022-07-29T07:24:50.557Z,101447.94
2022-07-29T07:27:17.161Z,101452.53
2022-07-29T07:29:44.191Z,101447.28
2022-07-29T07:32:11.276Z,101445.38
2022-07-29T07:34:39.049Z,101442.59
2022-07-29T07:37:06.353Z,101443.72
2022-07-29T07:39:32.990Z,101437.25
2022-07-29T07:41:59.852Z,101446.66
2022-07-29T07:44:26.554Z,101447.09
2022-07-29T07:46:53.635Z,101449.00
2022-07-29T07:49:21.719Z,101446.75
2022-07-29T07:51:50.756Z,101440.91
2022-07-29T07:54:18.918Z,101437.97
2022-07-29T07:56:52.948Z,101442.03
2022-07-29T07:59:20.106Z,101446.56
2022-07-29T08:01:47.831Z,101438.28
2022-07-29T08:04:27.305Z,101447.28
2022-07-29T08:06:55.300Z,101443.31
2022-07-29T08:09:29.254Z,101445.19
2022-07-29T08:11:57.877Z,101436.31
2022-07-29T08:14:24.578Z,101436.09
2022-07-29T08:16:52.570Z,101436.94
2022-07-29T08:19:19.314Z,101433.56
2022-07-29T08:21:46.562Z,101427.66
2022-07-29T08:24:32.215Z,101424.59
2022-07-29T08:26:59.123Z,101423.84
2022-07-29T08:29:27.240Z,101425.16
2022-07-29T08:31:54.356Z,101429.25
2022-07-29T08:34:27.909Z,101418.28
2022-07-29T08:36:55.031Z,101427.03
2022-07-29T08:39:21.826Z,101426.06
2022-07-29T08:41:57.005Z,101426.25
2022-07-29T08:44:30.833Z,101430.00
2022-07-29T08:46:57.983Z,101425.16
2022-07-29T08:49:24.638Z,101422.28
2022-07-29T08:51:52.222Z,101420.81
2022-07-29T08:54:19.614Z,101428.19
2022-07-29T08:56:50.852Z,101426.75
2022-07-29T08:59:22.077Z,101414.59
2022-07-29T09:01:53.753Z,101417.31
2022-07-29T09:04:22.129Z,101418.41
2022-07-29T09:06:52.333Z,101423.06
2022-07-29T09:09:19.229Z,101418.72
2022-07-29T09:11:45.948Z,101413.88
2022-07-29T09:14:14.406Z,101418.31
2022-07-29T09:16:56.281Z,101419.59
2022-07-29T09:19:37.193Z,101413.97
2022-07-29T09:22:06.526Z,101409.75
2022-07-29T09:24:44.052Z,101392.78
2022-07-29T09:27:18.695Z,101400.53
2022-07-29T09:29:45.391Z,101393.41
2022-07-29T09:32:12.290Z,101378.13
2022-07-29T09:34:39.428Z,101383.56
2022-07-29T09:37:06.475Z,101382.31
2022-07-29T09:39:47.335Z,101382.75
2022-07-29T09:42:15.909Z,101383.97
2022-07-29T09:44:49.174Z,101385.03
2022-07-29T09:47:17.264Z,101394.25
2022-07-29T09:50:04.389Z,101382.50
2022-07-29T09:52:31.367Z,101383.34
2022-07-29T09:55:08.427Z,101379.84
2022-07-29T09:57:35.354Z,101377.94
2022-07-29T10:00:08.020Z,101380.22
2022-07-29T10:02:37.461Z,101381.06
2022-07-29T10:05:06.869Z,101379.56
2022-07-29T10:07:48.304Z,101376.41
2022-07-29T10:10:38.041Z,101383.13
2022-07-29T10:13:16.410Z,101375.78
2022-07-29T10:15:46.779Z,101385.22
2022-07-29T10:18:18.244Z,101371.09
2022-07-29T10:20:45.253Z,101376.38
2022-07-29T10:23:11.885Z,101374.03
2022-07-29T10:25:38.547Z,101370.47
2022-07-29T10:28:06.806Z,101376.75
2022-07-29T10:30:33.736Z,101373.84
2022-07-29T10:33:18.984Z,101378.84
2022-07-29T10:35:54.425Z,101377.34
2022-07-29T10:38:47.078Z,101380.91
2022-07-29T10:41:36.269Z,101368.88
2022-07-29T10:44:17.291Z,101368.31
2022-07-29T10:46:46.459Z,101362.31
2022-07-29T10:49:24.375Z,101358.38
2022-07-29T10:51:51.855Z,101357.50
2022-07-29T10:54:48.640Z,101345.72
2022-07-29T10:57:52.539Z,101351.50
2022-07-29T11:00:27.833Z,101348.84
2022-07-29T11:02:56.439Z,101347.25
2022-07-29T11:05:24.795Z,101349.44
2022-07-29T11:08:20.206Z,101349.53
2022-07-29T11:10:51.512Z,101344.41
2022-07-29T11:13:47.349Z,101340.72
2022-07-29T11:16:16.744Z,101337.38
2022-07-29T11:19:26.170Z,101340.34
2022-07-29T11:22:05.609Z,101337.84
2022-07-29T11:24:34.774Z,101339.25
2022-07-29T11:27:08.476Z,101339.63
2022-07-29T11:29:40.404Z,101329.81
2022-07-29T11:35:37.330Z,101332.69
2022-07-29T11:38:23.682Z,101330.94
2022-07-29T11:41:18.501Z,101326.88
2022-07-29T11:43:50.874Z,101322.56
2022-07-29T11:46:36.795Z,101321.84
2022-07-29T11:49:09.252Z,101320.16
2022-07-29T11:51:38.089Z,101321.19
2022-07-29T11:54:27.403Z,101325.06
2022-07-29T11:56:54.882Z,101326.53
2022-07-29T11:59:22.367Z,101315.88
2022-07-29T12:02:18.573Z,101314.44
2022-07-29T12:04:57.792Z,101305.28
2022-07-29T12:07:34.640Z,101310.72
2022-07-29T12:10:03.156Z,101307.81
2022-07-29T12:12:29.921Z,101300.22
2022-07-29T12:14:56.667Z,101290.59
2022-07-29T12:17:32.021Z,101291.91
2022-07-29T12:20:00.777Z,101294.09
2022-07-29T12:22:35.788Z,101291.97
2022-07-29T12:25:31.948Z,101290.06
2022-07-29T12:28:03.156Z,101283.63
2022-07-29T12:30:42.846Z,101287.78
2022-07-29T12:33:13.954Z,101287.97
2022-07-29T12:35:42.410Z,101282.88
2022-07-29T12:38:12.180Z,101285.06
2022-07-29T12:40:39.155Z,101276.81
2022-07-29T12:43:06.774Z,101278.31
2022-07-29T12:45:33.530Z,101279.31
2022-07-29T12:48:00.305Z,101279.25
2022-07-29T12:50:27.028Z,101277.91
2022-07-29T12:52:53.671Z,101271.34
2022-07-29T12:55:43.241Z,101270.69
2022-07-29T12:58:09.913Z,101271.88
2022-07-29T13:00:36.770Z,101261.03
2022-07-29T13:03:03.463Z,101259.00
2022-07-29T13:05:44.598Z,101272.16
2022-07-29T13:08:22.088Z,101271.41
2022-07-29T13:10:48.981Z,101266.28
2022-07-29T13:13:16.415Z,101259.38
2022-07-29T13:15:49.872Z,101264.75
2022-07-29T13:18:34.614Z,101252.13
2022-07-29T13:21:16.055Z,101252.69
2022-07-29T13:23:43.569Z,101249.81
2022-07-29T13:26:12.500Z,101253.78
2022-07-29T13:28:39.202Z,101255.81
2022-07-29T13:31:06.067Z,101243.72
2022-07-29T13:33:32.936Z,101251.06
2022-07-29T13:35:59.551Z,101243.66
2022-07-29T13:38:31.125Z,101238.38
2022-07-29T13:40:58.221Z,101236.75
2022-07-29T13:43:24.906Z,101235.28
2022-07-29T13:45:51.600Z,101237.81
2022-07-29T13:48:18.305Z,101232.28
2022-07-29T13:50:45.226Z,101227.63
2022-07-29T13:53:18.015Z,101223.03
2022-07-29T13:55:46.115Z,101230.75
2022-07-29T13:58:12.759Z,101218.69
2022-07-29T14:00:39.436Z,101223.91
2022-07-29T14:03:07.396Z,101219.78
2022-07-29T14:05:34.108Z,101223.84
2022-07-29T14:08:00.701Z,101217.91
2022-07-29T14:10:27.435Z,101216.81
2022-07-29T14:12:54.041Z,101221.63
2022-07-29T14:15:21.277Z,101208.84
2022-07-29T14:17:47.870Z,101209.06
2022-07-29T14:20:16.513Z,101207.50
2022-07-29T14:22:45.064Z,101207.09
2022-07-29T14:25:14.713Z,101211.13
2022-07-29T14:27:43.019Z,101199.94
2022-07-29T14:30:10.541Z,101198.66
2022-07-29T14:32:37.303Z,101195.22
2022-07-29T14:35:04.483Z,101194.63
2022-07-29T14:37:39.822Z,101192.25
2022-07-29T14:40:08.758Z,101189.25
2022-07-29T14:42:35.492Z,101191.88
2022-07-29T14:45:02.179Z,101196.63
2022-07-29T14:47:28.837Z,101192.44
2022-07-29T14:49:55.624Z,101192.97
2022-07-29T14:52:22.235Z,101194.69
2022-07-29T14:54:48.876Z,101190.97
2022-07-29T14:57:15.919Z,101192.53
2022-07-29T14:59:42.510Z,101188.63
2022-07-29T15:02:09.590Z,101189.56
2022-07-29T15:04:36.514Z,101182.44
2022-07-29T15:07:03.360Z,101179.53
2022-07-29T15:09:29.974Z,101184.09
2022-07-29T15:11:57.002Z,101185.88
2022-07-29T15:14:23.933Z,101181.22
2022-07-29T15:16:52.728Z,101180.13
2022-07-29T15:19:20.172Z,101187.22
2022-07-29T15:21:48.567Z,101186.59
2022-07-29T15:24:19.611Z,101183.19
2022-07-29T15:26:47.388Z,101177.06
2022-07-29T15:29:14.857Z,101183.69
2022-07-29T15:31:41.817Z,101177.59
2022-07-29T15:34:08.629Z,101170.47
2022-07-29T15:36:51.638Z,101177.00
2022-07-29T15:39:19.461Z,101176.41
2022-07-29T15:41:46.060Z,101174.72
2022-07-29T15:44:12.728Z,101175.13
2022-07-29T15:46:58.327Z,101174.72
2022-07-29T15:49:46.398Z,101164.56
2022-07-29T15:52:17.267Z,101161.88
2022-07-29T15:54:43.921Z,101158.88
2022-07-29T15:57:10.756Z,101167.19
2022-07-29T15:59:37.647Z,101159.88
2022-07-29T16:02:05.012Z,101158.09
2022-07-29T16:04:32.448Z,101152.28
2022-07-29T16:06:59.478Z,101154.41
2022-07-29T16:09:26.642Z,101156.59
2022-07-29T16:11:54.065Z,101147.47
2022-07-29T16:14:21.175Z,101154.66
2022-07-29T16:16:48.322Z,101146.16
2022-07-29T16:19:15.354Z,101143.53
2022-07-29T16:21:42.116Z,101138.41
2022-07-29T16:24:08.903Z,101136.44
2022-07-29T16:26:35.757Z,101133.50
2022-07-29T16:29:02.388Z,101124.53
2022-07-29T16:31:29.070Z,101125.28
2022-07-29T16:33:56.110Z,101130.38
2022-07-29T16:36:23.207Z,101124.31
2022-07-29T16:38:50.406Z,101121.66
2022-07-29T16:41:17.028Z,101111.19
2022-07-29T16:43:43.639Z,101116.63
2022-07-29T16:46:13.997Z,101117.63
2022-07-29T16:48:45.446Z,101121.03
2022-07-29T16:51:14.493Z,101118.44
2022-07-29T16:53:41.611Z,101127.56
2022-07-29T16:56:12.653Z,101131.88
2022-07-29T16:58:43.485Z,101135.09
2022-07-29T17:01:11.351Z,101120.03
2022-07-29T17:04:00.207Z,101123.84
2022-07-29T17:06:28.668Z,101124.41
2022-07-29T17:08:56.459Z,101122.56
2022-07-29T17:11:23.073Z,101114.44
2022-07-29T17:14:10.229Z,101120.66
2022-07-29T17:16:37.000Z,101118.16
2022-07-29T17:19:03.739Z,101121.56
2022-07-29T17:21:30.385Z,101123.75
2022-07-29T17:23:58.840Z,101116.59
2022-07-29T17:26:26.852Z,101118.22
2022-07-29T17:28:55.023Z,101120.41
2022-07-29T17:31:21.910Z,101117.69
2022-07-29T17:33:48.605Z,101113.50
2022-07-29T17:36:24.143Z,101119.56
2022-07-29T17:38:53.244Z,101111.00
2022-07-29T17:41:21.120Z,101109.47
2022-07-29T17:43:48.470Z,101120.69
2022-07-29T17:46:15.684Z,101122.19
2022-07-29T17:48:43.969Z,101116.97
2022-07-29T17:51:10.861Z,101124.72
2022-07-29T17:53:37.930Z,101119.28
2022-07-29T17:56:05.264Z,101122.69
2022-07-29T17:58:32.518Z,101123.91
2022-07-29T18:00:59.372Z,101126.09
2022-07-29T18:03:26.064Z,101126.69
2022-07-29T18:05:53.551Z,101128.59
2022-07-29T18:08:20.275Z,101133.81
2022-07-29T18:10:46.885Z,101128.59
2022-07-29T18:13:13.858Z,101136.09
2022-07-29T18:15:41.058Z,101124.56
2022-07-29T18:18:08.395Z,101134.94
2022-07-29T18:20:35.381Z,101137.88
2022-07-29T18:23:02.036Z,101137.28
2022-07-29T18:25:29.611Z,101132.88
2022-07-29T18:28:00.303Z,101131.59
2022-07-29T18:30:28.626Z,101139.16
2022-07-29T18:33:19.652Z,101149.66
2022-07-29T18:35:41.900Z,101151.75
2022-07-29T18:38:08.509Z,101146.75
2022-07-29T18:40:35.482Z,101160.59
2022-07-29T18:43:02.224Z,101157.72
2022-07-29T18:45:29.012Z,101152.03
2022-07-29T18:47:57.148Z,101156.81
2022-07-29T18:50:28.965Z,101161.06
2022-07-29T18:52:58.457Z,101164.38
2022-07-29T18:55:25.789Z,101165.91
2022-07-29T18:57:55.430Z,101167.59
2022-07-29T19:00:24.068Z,101164.84
2022-07-29T19:02:50.968Z,101162.34
2022-07-29T19:05:18.028Z,101159.03
2022-07-29T19:07:44.635Z,101162.75
2022-07-29T19:10:12.017Z,101167.81
2022-07-29T19:12:39.160Z,101173.06
2022-07-29T19:15:07.680Z,101177.44
2022-07-29T19:17:34.314Z,101170.94
2022-07-29T19:20:00.937Z,101176.38
2022-07-29T19:22:27.800Z,101178.50
2022-07-29T19:24:54.432Z,101178.50
2022-07-29T19:27:21.539Z,101178.50
2022-07-29T19:29:48.203Z,101174.72
2022-07-29T19:32:25.345Z,101180.41
2022-07-29T19:35:11.400Z,101183.97
2022-07-29T19:37:38.293Z,101184.41
2022-07-29T19:40:06.162Z,101192.81
2022-07-29T19:42:33.019Z,101189.25
2022-07-29T19:45:00.005Z,101182.31
2022-07-29T19:47:26.821Z,101183.19
2022-07-29T19:49:53.823Z,101180.25
2022-07-29T19:52:20.485Z,101184.69
2022-07-29T19:54:47.095Z,101192.00
2022-07-29T19:57:14.183Z,101193.88
2022-07-29T19:59:41.141Z,101194.78
2022-07-29T20:02:10.936Z,101193.72
2022-07-29T20:04:38.685Z,101199.41
2022-07-29T20:07:06.771Z,101195.16
2022-07-29T20:09:34.976Z,101197.69
2022-07-29T20:12:01.689Z,101203.16
2022-07-29T20:14:28.668Z,101194.41
2022-07-29T20:16:55.262Z,101198.13
2022-07-29T20:19:21.954Z,101198.75
2022-07-29T20:21:49.303Z,101191.22
2022-07-29T20:24:15.898Z,101192.91
2022-07-29T20:26:42.586Z,101186.38
2022-07-29T20:29:09.225Z,101196.25
2022-07-29T20:31:36.156Z,101186.38
2022-07-29T20:34:03.441Z,101197.28
2022-07-29T20:36:30.118Z,101198.97
2022-07-29T20:38:56.786Z,101205.25
2022-07-29T20:41:23.546Z,101206.72
2022-07-29T20:43:50.289Z,101205.25
2022-07-29T20:46:17.939Z,101207.16
2022-07-29T20:48:45.391Z,101200.84
2022-07-29T20:51:12.080Z,101204.41
2022-07-29T20:53:40.045Z,101207.75
2022-07-29T20:56:07.723Z,101205.47
2022-07-29T20:58:36.100Z,101209.88
2022-07-29T21:01:03.239Z,101219.34
2022-07-29T21:03:30.582Z,101219.09
2022-07-29T21:05:57.236Z,101212.00
2022-07-29T21:08:24.710Z,101215.78
2022-07-29T21:10:51.523Z,101210.31
2022-07-29T21:13:18.676Z,101217.03
2022-07-29T21:15:49.248Z,101225.00
2022-07-29T21:18:27.445Z,101228.56
2022-07-29T21:20:55.005Z,101230.69
2022-07-29T21:23:22.008Z,101230.47
2022-07-29T21:25:48.679Z,101227.72
2022-07-29T21:28:27.666Z,101232.56
2022-07-29T21:30:59.528Z,101234.25
2022-07-29T21:33:27.842Z,101230.91
2022-07-29T21:38:41.790Z,101224.59
2022-07-29T21:41:10.922Z,101222.91
2022-07-29T21:43:37.964Z,101225.00
2022-07-29T21:46:09.301Z,101227.75
2022-07-29T21:48:36.248Z,101222.50
2022-07-29T21:51:02.930Z,101225.00
2022-07-29T21:53:30.675Z,101210.16
2022-07-29T21:55:57.685Z,101219.41
2022-07-29T21:58:25.192Z,101223.78
2022-07-29T22:00:52.252Z,101215.81
2022-07-29T22:03:18.987Z,101217.50
2022-07-29T22:05:46.203Z,101225.47
2022-07-29T22:08:13.505Z,101223.56
2022-07-29T22:10:40.483Z,101223.56
2022-07-29T22:13:07.198Z,101226.28
2022-07-29T22:15:33.812Z,101228.00
2022-07-29T22:18:00.578Z,101225.25
2022-07-29T22:20:27.701Z,101227.13
2022-07-29T22:22:54.468Z,101238.25
2022-07-29T22:25:21.991Z,101235.53
2022-07-29T22:27:48.723Z,101226.50
2022-07-29T22:30:15.873Z,101231.97
2022-07-29T22:32:42.928Z,101222.94
2022-07-29T22:35:09.871Z,101222.34
2022-07-29T22:37:36.643Z,101220.84
2022-07-29T22:40:04.115Z,101215.38
2022-07-29T22:42:30.776Z,101206.38
2022-07-29T22:44:57.548Z,101196.91
2022-07-29T22:47:46.480Z,101197.34
2022-07-29T22:50:11.122Z,101191.28
2022-07-29T22:52:37.736Z,101196.75
2022-07-29T22:55:05.420Z,101190.22
2022-07-29T22:57:32.056Z,101187.09
2022-07-29T23:00:01.934Z,101189.84
2022-07-29T23:02:29.108Z,101199.47
2022-07-29T23:04:55.813Z,101197.38
2022-07-29T23:07:22.878Z,101188.13
2022-07-29T23:09:49.804Z,101191.91
2022-07-29T23:12:16.568Z,101186.69
2022-07-29T23:14:43.972Z,101188.34
2022-07-29T23:17:10.720Z,101189.59
2022-07-29T23:19:37.452Z,101184.38
2022-07-29T23:22:04.732Z,101182.69
2022-07-29T23:24:31.336Z,101180.19
2022-07-29T23:26:58.142Z,101181.47
2022-07-29T23:29:24.962Z,101180.81
2022-07-29T23:31:51.549Z,101184.19
2022-07-29T23:34:18.184Z,101180.63
2022-07-29T23:36:44.793Z,101194.44
2022-07-29T23:39:12.272Z,101183.75
2022-07-29T23:41:39.150Z,101187.31
2022-07-29T23:44:05.974Z,101178.91
2022-07-29T23:46:32.683Z,101182.91
2022-07-29T23:48:59.376Z,101189.41
2022-07-29T23:51:26.174Z,101182.91
2022-07-29T23:53:54.233Z,101179.56
2022-07-29T23:56:21.293Z,101178.97
2022-07-29T23:58:48.033Z,101177.28
